sensor_id;sensor_type;location;lat;lon;timestamp;pressure;altitude;pressure_sealevel;temperature;humidity
40850;BME280;26571;41.610;25.380;2022-07-23T00:02:21;98468.50;;;24.43;43.52
40850;BME280;26571;41.610;25.380;2022-07-23T00:04:46;98477.81;;;24.35;43.10
40850;BME280;26571;41.610;25.380;2022-07-23T00:07:12;98473.75;;;24.33;42.92
40850;BME280;26571;41.610;25.380;2022-07-23T00:09:37;98461.25;;;24.21;43.32
40850;BME280;26571;41.610;25.380;2022-07-23T00:12:03;98480.59;;;24.18;43.39
40850;BME280;26571;41.610;25.380;2022-07-23T00:14:29;98466.31;;;23.91;43.99
40850;BME280;26571;41.610;25.380;2022-07-23T00:16:54;98477.97;;;24.02;44.26
40850;BME280;26571;41.610;25.380;2022-07-23T00:19:20;98477.19;;;24.01;44.68
40850;BME280;26571;41.610;25.380;2022-07-23T00:21:45;98465.69;;;23.84;45.16
40850;BME280;26571;41.610;25.380;2022-07-23T00:24:10;98481.13;;;23.93;44.75
40850;BME280;26571;41.610;25.380;2022-07-23T00:26:36;98421.63;;;23.63;45.00
40850;BME280;26571;41.610;25.380;2022-07-23T00:29:01;98473.38;;;23.75;45.65
40850;BME280;26571;41.610;25.380;2022-07-23T00:31:27;98484.81;;;23.65;45.81
40850;BME280;26571;41.610;25.380;2022-07-23T00:33:52;98438.91;;;23.28;46.21
40850;BME280;26571;41.610;25.380;2022-07-23T00:36:22;98477.03;;;23.47;46.23
40850;BME280;26571;41.610;25.380;2022-07-23T00:38:49;98477.03;;;23.47;46.09
40850;BME280;26571;41.610;25.380;2022-07-23T00:41:14;98494.47;;;23.44;46.48
40850;BME280;26571;41.610;25.380;2022-07-23T00:43:40;98450.19;;;23.08;47.07
40850;BME280;26571;41.610;25.380;2022-07-23T00:46:05;98471.81;;;23.18;48.04
40850;BME280;26571;41.610;25.380;2022-07-23T00:48:30;98477.41;;;23.17;47.32
40850;BME280;26571;41.610;25.380;2022-07-23T00:50:56;98480.34;;;23.15;47.27
40850;BME280;26571;41.610;25.380;2022-07-23T00:53:22;98473.44;;;23.19;47.38
40850;BME280;26571;41.610;25.380;2022-07-23T00:55:48;98448.41;;;22.97;47.43
40850;BME280;26571;41.610;25.380;2022-07-23T00:58:14;98485.81;;;23.20;47.31
40850;BME280;26571;41.610;25.380;2022-07-23T01:00:40;98481.50;;;23.19;46.98
40850;BME280;26571;41.610;25.380;2022-07-23T01:03:06;98443.59;;;22.99;47.10
40850;BME280;26571;41.610;25.380;2022-07-23T01:05:32;98489.00;;;23.17;47.25
40850;BME280;26571;41.610;25.380;2022-07-23T01:07:58;98486.06;;;23.19;47.50
40850;BME280;26571;41.610;25.380;2022-07-23T01:10:25;98468.00;;;23.14;47.25
40850;BME280;26571;41.610;25.380;2022-07-23T01:13:07;98490.09;;;23.21;47.36
40850;BME280;26571;41.610;25.380;2022-07-23T01:15:34;98480.75;;;23.24;47.45
40850;BME280;26571;41.610;25.380;2022-07-23T01:18:01;98469.22;;;23.07;47.60
40850;BME280;26571;41.610;25.380;2022-07-23T01:20:26;98489.31;;;23.21;47.48
40850;BME280;26571;41.610;25.380;2022-07-23T01:22:52;98489.22;;;23.16;47.68
40850;BME280;26571;41.610;25.380;2022-07-23T01:25:19;98488.34;;;23.10;47.79
40850;BME280;26571;41.610;25.380;2022-07-23T01:27:44;98484.03;;;23.09;47.82
40850;BME280;26571;41.610;25.380;2022-07-23T01:30:10;98467.25;;;23.02;47.66
40850;BME280;26571;41.610;25.380;2022-07-23T01:32:36;98485.72;;;23.15;48.49
40850;BME280;26571;41.610;25.380;2022-07-23T01:35:02;98482.16;;;23.10;48.24
40850;BME280;26571;41.610;25.380;2022-07-23T01:37:28;98483.16;;;23.04;48.44
40850;BME280;26571;41.610;25.380;2022-07-23T01:39:53;98491.34;;;22.97;48.29
40850;BME280;26571;41.610;25.380;2022-07-23T01:42:19;98439.84;;;22.66;48.57
40850;BME280;26571;41.610;25.380;2022-07-23T01:44:44;98482.75;;;22.95;48.29
40850;BME280;26571;41.610;25.380;2022-07-23T01:47:10;98480.59;;;22.97;48.51
40850;BME280;26571;41.610;25.380;2022-07-23T01:49:35;98482.19;;;22.93;49.07
40850;BME280;26571;41.610;25.380;2022-07-23T01:52:01;98485.91;;;22.92;49.17
40850;BME280;26571;41.610;25.380;2022-07-23T01:54:31;98479.88;;;22.85;49.13
40850;BME280;26571;41.610;25.380;2022-07-23T01:56:57;98486.22;;;22.79;49.59
40850;BME280;26571;41.610;25.380;2022-07-23T01:59:24;98483.44;;;22.74;49.29
40850;BME280;26571;41.610;25.380;2022-07-23T02:01:49;98487.75;;;22.75;49.59
40850;BME280;26571;41.610;25.380;2022-07-23T02:04:19;98483.84;;;22.65;49.94
40850;BME280;26571;41.610;25.380;2022-07-23T02:06:45;98481.28;;;22.42;50.22
40850;BME280;26571;41.610;25.380;2022-07-23T02:09:10;98487.34;;;22.49;50.02
40850;BME280;26571;41.610;25.380;2022-07-23T02:11:36;98481.16;;;22.49;50.02
40850;BME280;26571;41.610;25.380;2022-07-23T02:14:02;98483.25;;;22.47;50.02
40850;BME280;26571;41.610;25.380;2022-07-23T02:16:27;98485.38;;;22.44;50.18
40850;BME280;26571;41.610;25.380;2022-07-23T02:18:52;98487.25;;;22.44;50.12
40850;BME280;26571;41.610;25.380;2022-07-23T02:21:18;98473.66;;;22.34;50.21
40850;BME280;26571;41.610;25.380;2022-07-23T02:23:43;98487.97;;;22.39;50.72
40850;BME280;26571;41.610;25.380;2022-07-23T02:26:09;98485.91;;;22.30;51.16
40850;BME280;26571;41.610;25.380;2022-07-23T02:28:34;98490.69;;;22.28;51.51
40850;BME280;26571;41.610;25.380;2022-07-23T02:31:00;98485.66;;;22.31;51.02
40850;BME280;26571;41.610;25.380;2022-07-23T02:33:25;98504.00;;;22.23;51.77
40850;BME280;26571;41.610;25.380;2022-07-23T02:35:51;98502.53;;;22.15;52.48
40850;BME280;26571;41.610;25.380;2022-07-23T02:38:16;98497.75;;;22.05;51.72
40850;BME280;26571;41.610;25.380;2022-07-23T02:40:41;98504.09;;;21.99;51.42
40850;BME280;26571;41.610;25.380;2022-07-23T02:43:07;98499.69;;;21.93;51.60
40850;BME280;26571;41.610;25.380;2022-07-23T02:45:32;98499.69;;;21.93;51.42
40850;BME280;26571;41.610;25.380;2022-07-23T02:47:58;98501.19;;;21.89;51.81
40850;BME280;26571;41.610;25.380;2022-07-23T02:50:23;98490.19;;;21.74;52.24
40850;BME280;26571;41.610;25.380;2022-07-23T02:52:49;98468.53;;;21.52;52.07
40850;BME280;26571;41.610;25.380;2022-07-23T02:55:14;98502.63;;;21.68;52.00
40850;BME280;26571;41.610;25.380;2022-07-23T02:57:40;98507.97;;;21.68;52.01
40850;BME280;26571;41.610;25.380;2022-07-23T03:00:06;98522.13;;;21.63;52.13
40850;BME280;26571;41.610;25.380;2022-07-23T03:02:32;98519.66;;;21.62;51.80
40850;BME280;26571;41.610;25.380;2022-07-23T03:04:58;98525.16;;;21.55;52.54
40850;BME280;26571;41.610;25.380;2022-07-23T03:07:23;98515.84;;;21.46;53.02
40850;BME280;26571;41.610;25.380;2022-07-23T03:09:49;98520.63;;;21.44;53.18
40850;BME280;26571;41.610;25.380;2022-07-23T03:12:15;98520.97;;;21.36;53.43
40850;BME280;26571;41.610;25.380;2022-07-23T03:14:41;98513.00;;;21.17;53.55
40850;BME280;26571;41.610;25.380;2022-07-23T03:17:06;98534.09;;;21.26;53.72
40850;BME280;26571;41.610;25.380;2022-07-23T03:19:32;98527.69;;;21.27;53.28
40850;BME280;26571;41.610;25.380;2022-07-23T03:21:57;98520.25;;;21.29;53.24
40850;BME280;26571;41.610;25.380;2022-07-23T03:24:23;98528.44;;;21.34;52.89
40850;BME280;26571;41.610;25.380;2022-07-23T03:27:08;98527.84;;;21.44;52.72
40850;BME280;26571;41.610;25.380;2022-07-23T03:29:34;98527.13;;;21.48;52.45
40850;BME280;26571;41.610;25.380;2022-07-23T03:31:59;98525.97;;;21.44;53.03
40850;BME280;26571;41.610;25.380;2022-07-23T03:34:24;98515.59;;;21.36;52.40
40850;BME280;26571;41.610;25.380;2022-07-23T03:36:50;98527.59;;;21.45;52.55
40850;BME280;26571;41.610;25.380;2022-07-23T03:39:15;98525.59;;;21.52;52.33
40850;BME280;26571;41.610;25.380;2022-07-23T03:41:41;98527.94;;;21.60;51.86
40850;BME280;26571;41.610;25.380;2022-07-23T03:44:06;98523.94;;;21.75;51.68
40850;BME280;26571;41.610;25.380;2022-07-23T03:46:32;98520.44;;;21.86;51.30
40850;BME280;26571;41.610;25.380;2022-07-23T03:48:57;98472.56;;;22.06;50.10
40850;BME280;26571;41.610;25.380;2022-07-23T03:51:23;98526.81;;;23.16;48.15
40850;BME280;26571;41.610;25.380;2022-07-23T03:53:48;98528.66;;;24.10;45.73
40850;BME280;26571;41.610;25.380;2022-07-23T03:56:14;98540.16;;;25.08;43.60
40850;BME280;26571;41.610;25.380;2022-07-23T03:58:39;98525.09;;;26.02;40.83
40850;BME280;26571;41.610;25.380;2022-07-23T04:01:05;98520.94;;;26.93;39.04
40850;BME280;26571;41.610;25.380;2022-07-23T04:03:31;98530.59;;;27.75;37.42
40850;BME280;26571;41.610;25.380;2022-07-23T04:05:56;98529.44;;;28.51;35.99
40850;BME280;26571;41.610;25.380;2022-07-23T04:08:21;98505.72;;;29.06;34.85
40850;BME280;26571;41.610;25.380;2022-07-23T04:10:47;98506.91;;;29.77;33.38
40850;BME280;26571;41.610;25.380;2022-07-23T04:13:12;98511.19;;;30.45;32.85
40850;BME280;26571;41.610;25.380;2022-07-23T04:15:38;98509.94;;;31.08;31.93
40850;BME280;26571;41.610;25.380;2022-07-23T04:18:04;98539.16;;;31.76;31.02
40850;BME280;26571;41.610;25.380;2022-07-23T04:20:29;98537.41;;;32.35;29.81
40850;BME280;26571;41.610;25.380;2022-07-23T04:22:55;98541.22;;;32.84;29.03
40850;BME280;26571;41.610;25.380;2022-07-23T04:25:20;98527.91;;;33.28;28.68
40850;BME280;26571;41.610;25.380;2022-07-23T04:27:46;98529.41;;;33.74;28.20
40850;BME280;26571;41.610;25.380;2022-07-23T04:30:11;98533.25;;;33.81;28.10
40850;BME280;26571;41.610;25.380;2022-07-23T04:32:37;98530.78;;;34.11;27.47
40850;BME280;26571;41.610;25.380;2022-07-23T04:35:02;98529.53;;;34.26;27.80
40850;BME280;26571;41.610;25.380;2022-07-23T04:37:28;98536.84;;;34.48;27.76
40850;BME280;26571;41.610;25.380;2022-07-23T04:39:53;98534.09;;;34.48;27.29
40850;BME280;26571;41.610;25.380;2022-07-23T04:42:18;98532.81;;;34.62;26.77
40850;BME280;26571;41.610;25.380;2022-07-23T04:44:44;98536.03;;;34.82;26.84
40850;BME280;26571;41.610;25.380;2022-07-23T04:47:09;98534.75;;;34.96;26.49
40850;BME280;26571;41.610;25.380;2022-07-23T04:49:35;98527.97;;;35.11;26.48
40850;BME280;26571;41.610;25.380;2022-07-23T04:52:01;98531.31;;;35.17;26.18
40850;BME280;26571;41.610;25.380;2022-07-23T04:54:26;98533.72;;;35.18;25.80
40850;BME280;26571;41.610;25.380;2022-07-23T04:56:52;98532.16;;;34.65;26.83
40850;BME280;26571;41.610;25.380;2022-07-23T04:59:17;98534.22;;;34.42;27.40
40850;BME280;26571;41.610;25.380;2022-07-23T05:01:43;98530.00;;;34.10;27.63
40850;BME280;26571;41.610;25.380;2022-07-23T05:04:08;98539.22;;;33.83;28.11
40850;BME280;26571;41.610;25.380;2022-07-23T05:06:33;98501.69;;;33.49;28.24
40850;BME280;26571;41.610;25.380;2022-07-23T05:08:59;98540.72;;;33.27;29.19
40850;BME280;26571;41.610;25.380;2022-07-23T05:11:24;98523.03;;;32.93;29.30
40850;BME280;26571;41.610;25.380;2022-07-23T05:13:50;98521.66;;;32.82;29.60
40850;BME280;26571;41.610;25.380;2022-07-23T05:16:16;98542.75;;;32.77;29.67
40850;BME280;26571;41.610;25.380;2022-07-23T05:18:42;98534.69;;;32.49;30.11
40850;BME280;26571;41.610;25.380;2022-07-23T05:21:07;98526.28;;;32.09;30.84
40850;BME280;26571;41.610;25.380;2022-07-23T05:23:33;98534.13;;;32.11;31.00
40850;BME280;26571;41.610;25.380;2022-07-23T05:25:59;98534.47;;;31.96;30.98
40850;BME280;26571;41.610;25.380;2022-07-23T05:28:24;98533.34;;;31.69;31.11
40850;BME280;26571;41.610;25.380;2022-07-23T05:30:50;98537.56;;;31.61;32.10
40850;BME280;26571;41.610;25.380;2022-07-23T05:33:18;98527.06;;;31.55;31.55
40850;BME280;26571;41.610;25.380;2022-07-23T05:35:44;98530.78;;;31.31;32.05
40850;BME280;26571;41.610;25.380;2022-07-23T05:38:09;98526.94;;;31.32;32.02
40850;BME280;26571;41.610;25.380;2022-07-23T05:40:35;98529.88;;;31.36;32.67
40850;BME280;26571;41.610;25.380;2022-07-23T05:43:00;98530.09;;;31.39;31.86
40850;BME280;26571;41.610;25.380;2022-07-23T05:45:26;98540.16;;;31.39;32.01
40850;BME280;26571;41.610;25.380;2022-07-23T05:47:51;98536.03;;;31.42;32.26
40850;BME280;26571;41.610;25.380;2022-07-23T05:50:17;98531.69;;;31.40;31.85
40850;BME280;26571;41.610;25.380;2022-07-23T05:52:42;98531.28;;;31.47;32.24
40850;BME280;26571;41.610;25.380;2022-07-23T05:55:09;98532.72;;;31.45;32.34
40850;BME280;26571;41.610;25.380;2022-07-23T05:57:35;98539.97;;;31.49;32.02
40850;BME280;26571;41.610;25.380;2022-07-23T06:00:02;98531.28;;;31.47;32.23
40850;BME280;26571;41.610;25.380;2022-07-23T06:02:28;98527.28;;;31.45;31.77
40850;BME280;26571;41.610;25.380;2022-07-23T06:04:53;98516.78;;;31.38;32.29
40850;BME280;26571;41.610;25.380;2022-07-23T06:07:19;98521.91;;;31.39;31.83
40850;BME280;26571;41.610;25.380;2022-07-23T06:09:44;98521.41;;;31.37;32.09
40850;BME280;26571;41.610;25.380;2022-07-23T06:12:09;98522.41;;;31.42;32.61
40850;BME280;26571;41.610;25.380;2022-07-23T06:14:35;98515.59;;;31.58;32.53
40850;BME280;26571;41.610;25.380;2022-07-23T06:17:00;98520.41;;;31.61;32.66
40850;BME280;26571;41.610;25.380;2022-07-23T06:19:26;98515.88;;;31.56;32.02
40850;BME280;26571;41.610;25.380;2022-07-23T06:21:52;98521.03;;;31.58;32.70
40850;BME280;26571;41.610;25.380;2022-07-23T06:24:17;98506.81;;;31.61;31.75
40850;BME280;26571;41.610;25.380;2022-07-23T06:26:43;98507.94;;;31.60;31.25
40850;BME280;26571;41.610;25.380;2022-07-23T06:29:08;98517.00;;;31.55;32.03
40850;BME280;26571;41.610;25.380;2022-07-23T06:31:34;98514.59;;;31.54;32.79
40850;BME280;26571;41.610;25.380;2022-07-23T06:33:59;98512.97;;;31.66;33.16
40850;BME280;26571;41.610;25.380;2022-07-23T06:36:25;98511.25;;;31.57;32.41
40850;BME280;26571;41.610;25.380;2022-07-23T06:38:50;98510.50;;;31.37;32.07
40850;BME280;26571;41.610;25.380;2022-07-23T06:41:16;98516.88;;;31.33;32.91
40850;BME280;26571;41.610;25.380;2022-07-23T06:43:41;98518.09;;;31.40;33.18
40850;BME280;26571;41.610;25.380;2022-07-23T06:46:07;98514.78;;;31.44;33.63
40850;BME280;26571;41.610;25.380;2022-07-23T06:48:32;98511.53;;;31.42;34.57
40850;BME280;26571;41.610;25.380;2022-07-23T06:50:59;98499.28;;;31.58;34.32
40850;BME280;26571;41.610;25.380;2022-07-23T06:53:25;98513.75;;;31.67;32.03
40850;BME280;26571;41.610;25.380;2022-07-23T06:55:50;98512.34;;;31.56;32.35
40850;BME280;26571;41.610;25.380;2022-07-23T06:58:16;98504.88;;;31.48;33.81
40850;BME280;26571;41.610;25.380;2022-07-23T07:00:41;98503.91;;;31.44;32.88
40850;BME280;26571;41.610;25.380;2022-07-23T07:03:07;98504.59;;;31.63;32.64
40850;BME280;26571;41.610;25.380;2022-07-23T07:05:32;98503.50;;;31.91;33.13
40850;BME280;26571;41.610;25.380;2022-07-23T07:07:57;98502.91;;;31.95;30.89
40850;BME280;26571;41.610;25.380;2022-07-23T07:10:23;98495.03;;;31.93;31.53
40850;BME280;26571;41.610;25.380;2022-07-23T07:12:48;98503.25;;;32.15;31.31
40850;BME280;26571;41.610;25.380;2022-07-23T07:15:14;98508.84;;;31.97;31.23
40850;BME280;26571;41.610;25.380;2022-07-23T07:17:39;98502.00;;;31.99;32.04
40850;BME280;26571;41.610;25.380;2022-07-23T07:20:06;98497.81;;;32.15;31.86
40850;BME280;26571;41.610;25.380;2022-07-23T07:22:31;98493.63;;;32.32;32.81
40850;BME280;26571;41.610;25.380;2022-07-23T07:24:57;98497.53;;;32.53;29.75
40850;BME280;26571;41.610;25.380;2022-07-23T07:27:22;98500.13;;;32.58;30.72
40850;BME280;26571;41.610;25.380;2022-07-23T07:29:47;98472.00;;;32.49;31.24
40850;BME280;26571;41.610;25.380;2022-07-23T07:32:13;98495.47;;;32.81;31.24
40850;BME280;26571;41.610;25.380;2022-07-23T07:34:38;98494.75;;;32.89;30.48
40850;BME280;26571;41.610;25.380;2022-07-23T07:37:04;98487.69;;;32.88;29.70
40850;BME280;26571;41.610;25.380;2022-07-23T07:39:29;98462.03;;;32.89;31.29
40850;BME280;26571;41.610;25.380;2022-07-23T07:41:55;98484.31;;;33.14;29.69
40850;BME280;26571;41.610;25.380;2022-07-23T07:44:20;98474.47;;;33.04;28.71
40850;BME280;26571;41.610;25.380;2022-07-23T07:46:46;98469.28;;;33.25;30.51
40850;BME280;26571;41.610;25.380;2022-07-23T07:49:11;98467.72;;;33.41;30.72
40850;BME280;26571;41.610;25.380;2022-07-23T07:51:36;98478.25;;;33.48;27.38
40850;BME280;26571;41.610;25.380;2022-07-23T07:54:02;98464.78;;;33.60;28.00
40850;BME280;26571;41.610;25.380;2022-07-23T07:56:27;98478.53;;;33.47;27.60
40850;BME280;26571;41.610;25.380;2022-07-23T07:58:53;98467.22;;;33.62;27.90
40850;BME280;26571;41.610;25.380;2022-07-23T08:01:18;98469.31;;;33.74;27.84
40850;BME280;26571;41.610;25.380;2022-07-23T08:03:47;98455.69;;;33.82;28.15
40850;BME280;26571;41.610;25.380;2022-07-23T08:06:12;98458.75;;;33.89;28.46
40850;BME280;26571;41.610;25.380;2022-07-23T08:08:38;98465.38;;;34.06;29.72
40850;BME280;26571;41.610;25.380;2022-07-23T08:11:03;98451.53;;;33.93;28.60
40850;BME280;26571;41.610;25.380;2022-07-23T08:13:29;98423.13;;;34.03;28.79
40850;BME280;26571;41.610;25.380;2022-07-23T08:15:54;98458.16;;;34.36;29.21
40850;BME280;26571;41.610;25.380;2022-07-23T08:18:20;98464.28;;;34.50;30.27
40850;BME280;26571;41.610;25.380;2022-07-23T08:20:45;98462.53;;;34.63;28.10
40850;BME280;26571;41.610;25.380;2022-07-23T08:23:11;98464.13;;;34.55;27.41
40850;BME280;26571;41.610;25.380;2022-07-23T08:25:41;98456.38;;;34.66;28.32
40850;BME280;26571;41.610;25.380;2022-07-23T08:28:12;98452.03;;;34.74;27.80
40850;BME280;26571;41.610;25.380;2022-07-23T08:30:40;98457.16;;;34.84;26.13
40850;BME280;26571;41.610;25.380;2022-07-23T08:33:11;98453.47;;;34.88;26.31
40850;BME280;26571;41.610;25.380;2022-07-23T08:35:40;98451.53;;;34.97;25.41
40850;BME280;26571;41.610;25.380;2022-07-23T08:38:09;98452.16;;;34.94;24.18
40850;BME280;26571;41.610;25.380;2022-07-23T08:40:38;98444.78;;;34.95;26.36
40850;BME280;26571;41.610;25.380;2022-07-23T08:43:05;98440.59;;;34.97;25.29
40850;BME280;26571;41.610;25.380;2022-07-23T08:45:36;98447.19;;;34.96;24.74
40850;BME280;26571;41.610;25.380;2022-07-23T08:48:02;98445.13;;;34.76;24.96
40850;BME280;26571;41.610;25.380;2022-07-23T08:50:28;98446.06;;;34.97;25.60
40850;BME280;26571;41.610;25.380;2022-07-23T08:52:54;98440.22;;;35.08;24.65
40850;BME280;26571;41.610;25.380;2022-07-23T08:55:22;98426.41;;;35.04;25.93
40850;BME280;26571;41.610;25.380;2022-07-23T08:57:50;98433.50;;;35.35;26.40
40850;BME280;26571;41.610;25.380;2022-07-23T09:00:16;98428.63;;;35.49;26.24
40850;BME280;26571;41.610;25.380;2022-07-23T09:02:43;98431.19;;;35.54;26.18
40850;BME280;26571;41.610;25.380;2022-07-23T09:05:10;98429.53;;;35.62;25.66
40850;BME280;26571;41.610;25.380;2022-07-23T09:10:47;98422.19;;;35.74;24.66
40850;BME280;26571;41.610;25.380;2022-07-23T09:16:13;98411.72;;;35.77;25.52
40850;BME280;26571;41.610;25.380;2022-07-23T09:18:40;98412.13;;;35.87;25.68
40850;BME280;26571;41.610;25.380;2022-07-23T09:23:54;98404.72;;;36.09;25.40
40850;BME280;26571;41.610;25.380;2022-07-23T09:28:55;98398.38;;;36.17;25.20
40850;BME280;26571;41.610;25.380;2022-07-23T09:31:22;98391.22;;;36.24;24.58
40850;BME280;26571;41.610;25.380;2022-07-23T09:33:48;98392.41;;;36.36;24.96
40850;BME280;26571;41.610;25.380;2022-07-23T09:36:13;98388.16;;;36.26;24.85
40850;BME280;26571;41.610;25.380;2022-07-23T09:38:49;98383.91;;;36.49;22.88
40850;BME280;26571;41.610;25.380;2022-07-23T09:41:16;98380.25;;;36.45;24.00
40850;BME280;26571;41.610;25.380;2022-07-23T09:43:41;98380.91;;;36.42;23.03
40850;BME280;26571;41.610;25.380;2022-07-23T09:46:24;98375.22;;;36.47;24.09
40850;BME280;26571;41.610;25.380;2022-07-23T09:48:54;98372.13;;;36.49;24.14
40850;BME280;26571;41.610;25.380;2022-07-23T09:51:22;98374.66;;;36.54;24.67
40850;BME280;26571;41.610;25.380;2022-07-23T09:53:54;98363.00;;;36.57;22.07
40850;BME280;26571;41.610;25.380;2022-07-23T09:56:20;98349.22;;;36.33;22.25
40850;BME280;26571;41.610;25.380;2022-07-23T09:58:50;98361.63;;;36.30;22.65
40850;BME280;26571;41.610;25.380;2022-07-23T10:01:28;98329.28;;;36.11;22.65
40850;BME280;26571;41.610;25.380;2022-07-23T10:03:54;98353.38;;;36.18;22.24
40850;BME280;26571;41.610;25.380;2022-07-23T10:06:20;98355.88;;;36.11;21.59
40850;BME280;26571;41.610;25.380;2022-07-23T10:08:47;98363.16;;;36.07;21.44
40850;BME280;26571;41.610;25.380;2022-07-23T10:11:14;98347.19;;;36.09;23.05
40850;BME280;26571;41.610;25.380;2022-07-23T10:13:42;98351.19;;;36.11;22.33
40850;BME280;26571;41.610;25.380;2022-07-23T10:16:18;98340.50;;;35.97;22.33
40850;BME280;26571;41.610;25.380;2022-07-23T10:18:48;98352.59;;;36.17;23.61
40850;BME280;26571;41.610;25.380;2022-07-23T10:21:20;98330.66;;;36.17;24.11
40850;BME280;26571;41.610;25.380;2022-07-23T10:24:01;98338.16;;;36.41;24.50
40850;BME280;26571;41.610;25.380;2022-07-23T10:26:45;98334.78;;;36.57;24.64
40850;BME280;26571;41.610;25.380;2022-07-23T10:37:32;98328.94;;;36.25;21.76
40850;BME280;26571;41.610;25.380;2022-07-23T10:42:36;98311.41;;;36.38;23.69
40850;BME280;26571;41.610;25.380;2022-07-23T10:45:22;98320.38;;;36.47;22.83
40850;BME280;26571;41.610;25.380;2022-07-23T10:47:48;98318.69;;;36.34;21.95
40850;BME280;26571;41.610;25.380;2022-07-23T10:50:18;98314.75;;;36.44;22.00
40850;BME280;26571;41.610;25.380;2022-07-23T10:53:17;98310.56;;;36.46;22.33
40850;BME280;26571;41.610;25.380;2022-07-23T10:55:48;98296.84;;;36.46;20.96
40850;BME280;26571;41.610;25.380;2022-07-23T10:58:47;98297.03;;;36.41;20.50
40850;BME280;26571;41.610;25.380;2022-07-23T11:01:36;98292.81;;;36.44;22.89
40850;BME280;26571;41.610;25.380;2022-07-23T11:04:03;98296.13;;;36.49;21.22
40850;BME280;26571;41.610;25.380;2022-07-23T11:11:50;98286.22;;;36.57;22.72
40850;BME280;26571;41.610;25.380;2022-07-23T11:14:15;98284.19;;;36.66;22.96
40850;BME280;26571;41.610;25.380;2022-07-23T11:17:00;98275.16;;;36.66;22.25
40850;BME280;26571;41.610;25.380;2022-07-23T11:19:26;98268.63;;;36.58;20.85
40850;BME280;26571;41.610;25.380;2022-07-23T11:21:51;98288.06;;;36.65;22.04
40850;BME280;26571;41.610;25.380;2022-07-23T11:24:18;98269.88;;;36.61;22.53
40850;BME280;26571;41.610;25.380;2022-07-23T11:26:45;98279.22;;;36.60;20.95
40850;BME280;26571;41.610;25.380;2022-07-23T11:32:00;98282.91;;;36.52;21.18
40850;BME280;26571;41.610;25.380;2022-07-23T11:34:32;98275.81;;;36.51;22.39
40850;BME280;26571;41.610;25.380;2022-07-23T11:36:59;98279.69;;;36.49;21.03
40850;BME280;26571;41.610;25.380;2022-07-23T11:39:27;98279.66;;;36.37;20.81
40850;BME280;26571;41.610;25.380;2022-07-23T11:41:53;98252.28;;;36.04;21.26
40850;BME280;26571;41.610;25.380;2022-07-23T11:44:32;98277.78;;;36.29;20.65
40850;BME280;26571;41.610;25.380;2022-07-23T11:47:09;98268.56;;;36.34;20.35
40850;BME280;26571;41.610;25.380;2022-07-23T11:49:36;98273.31;;;36.24;20.46
40850;BME280;26571;41.610;25.380;2022-07-23T11:52:05;98255.16;;;36.20;20.39
40850;BME280;26571;41.610;25.380;2022-07-23T11:54:33;98279.38;;;36.30;20.92
40850;BME280;26571;41.610;25.380;2022-07-23T11:57:00;98264.09;;;36.29;20.86
40850;BME280;26571;41.610;25.380;2022-07-23T11:59:27;98264.34;;;36.36;20.27
40850;BME280;26571;41.610;25.380;2022-07-23T12:02:01;98264.94;;;36.42;20.68
40850;BME280;26571;41.610;25.380;2022-07-23T12:04:47;98265.75;;;36.42;21.60
40850;BME280;26571;41.610;25.380;2022-07-23T12:07:34;98258.91;;;36.48;20.81
40850;BME280;26571;41.610;25.380;2022-07-23T12:10:12;98260.97;;;36.52;21.52
40850;BME280;26571;41.610;25.380;2022-07-23T12:12:43;98249.91;;;36.60;20.96
40850;BME280;26571;41.610;25.380;2022-07-23T12:15:11;98250.13;;;36.67;21.43
40850;BME280;26571;41.610;25.380;2022-07-23T12:17:38;98242.69;;;36.68;19.95
40850;BME280;26571;41.610;25.380;2022-07-23T12:20:06;98243.72;;;36.63;18.62
40850;BME280;26571;41.610;25.380;2022-07-23T12:22:47;98243.38;;;36.53;19.90
40850;BME280;26571;41.610;25.380;2022-07-23T12:25:14;98246.56;;;36.42;20.39
40850;BME280;26571;41.610;25.380;2022-07-23T12:27:41;98238.78;;;36.44;19.10
40850;BME280;26571;41.610;25.380;2022-07-23T12:30:25;98233.78;;;36.46;20.75
40850;BME280;26571;41.610;25.380;2022-07-23T12:32:57;98233.41;;;36.48;19.95
40850;BME280;26571;41.610;25.380;2022-07-23T12:35:29;98225.63;;;36.50;19.56
40850;BME280;26571;41.610;25.380;2022-07-23T12:38:00;98242.06;;;36.38;18.98
40850;BME280;26571;41.610;25.380;2022-07-23T12:40:28;98239.63;;;36.24;19.57
40850;BME280;26571;41.610;25.380;2022-07-23T12:43:01;98237.69;;;36.24;20.15
40850;BME280;26571;41.610;25.380;2022-07-23T12:45:28;98236.56;;;36.26;19.93
40850;BME280;26571;41.610;25.380;2022-07-23T12:48:05;98214.97;;;36.12;19.19
40850;BME280;26571;41.610;25.380;2022-07-23T12:50:58;98232.13;;;36.21;18.94
40850;BME280;26571;41.610;25.380;2022-07-23T12:53:30;98230.03;;;36.18;19.31
40850;BME280;26571;41.610;25.380;2022-07-23T12:56:12;98225.69;;;36.17;19.93
40850;BME280;26571;41.610;25.380;2022-07-23T12:59:07;98225.22;;;36.15;19.19
40850;BME280;26571;41.610;25.380;2022-07-23T13:01:36;98224.31;;;36.11;19.39
40850;BME280;26571;41.610;25.380;2022-07-23T13:06:39;98215.63;;;36.09;19.79
40850;BME280;26571;41.610;25.380;2022-07-23T13:09:08;98214.84;;;36.08;19.69
40850;BME280;26571;41.610;25.380;2022-07-23T13:11:33;98214.25;;;36.15;20.15
40850;BME280;26571;41.610;25.380;2022-07-23T13:14:00;98213.25;;;36.07;19.65
40850;BME280;26571;41.610;25.380;2022-07-23T13:16:27;98203.63;;;36.01;19.19
40850;BME280;26571;41.610;25.380;2022-07-23T13:18:52;98181.06;;;35.83;19.54
40850;BME280;26571;41.610;25.380;2022-07-23T13:21:18;98209.34;;;35.96;20.28
40850;BME280;26571;41.610;25.380;2022-07-23T13:23:43;98169.19;;;35.79;19.66
40850;BME280;26571;41.610;25.380;2022-07-23T13:26:09;98173.66;;;35.84;20.37